createdAt,value
2019-04-29T00:01:03.517Z,100741.00
2019-04-29T00:03:36.440Z,100737.00
2019-04-29T00:06:09.483Z,100739.00
2019-04-29T00:08:42.507Z,100745.00
2019-04-29T00:11:15.523Z,100743.00
2019-04-29T00:13:48.633Z,100747.00
2019-04-29T00:16:30.384Z,100742.00
2019-04-29T00:19:36.115Z,100747.00
2019-04-29T00:22:08.369Z,100751.00
2019-04-29T00:24:41.305Z,100752.00
2019-04-29T00:27:14.399Z,100751.00
2019-04-29T00:29:47.315Z,100749.00
2019-04-29T00:32:20.121Z,100750.00
2019-04-29T00:34:53.005Z,100739.00
2019-04-29T00:37:48.244Z,100754.00
2019-04-29T00:40:39.218Z,100750.00
2019-04-29T00:43:20.089Z,100752.00
2019-04-29T00:45:52.887Z,100759.00
2019-04-29T00:48:25.735Z,100758.00
2019-04-29T00:50:58.633Z,100760.00
2019-04-29T00:53:31.971Z,100759.00
2019-04-29T00:56:05.619Z,100765.00
2019-04-29T00:58:38.448Z,100759.00
2019-04-29T01:01:15.182Z,100763.00
2019-04-29T01:03:48.000Z,100770.00
2019-04-29T01:06:20.837Z,100763.00
2019-04-29T01:08:53.658Z,100765.00
2019-04-29T01:11:27.567Z,100761.00
2019-04-29T01:14:00.402Z,100757.00
2019-04-29T01:16:35.943Z,100767.00
2019-04-29T01:19:08.798Z,100762.00
2019-04-29T01:21:41.598Z,100757.00
2019-04-29T01:24:14.424Z,100756.00
2019-04-29T01:27:06.832Z,100755.00
2019-04-29T01:29:39.807Z,100761.00
2019-04-29T01:32:13.823Z,100767.00
2019-04-29T01:34:52.003Z,100766.00
2019-04-29T01:37:39.132Z,100760.00
2019-04-29T01:40:30.677Z,100765.00
2019-04-29T01:43:03.520Z,100758.00
2019-04-29T01:45:36.333Z,100750.00
2019-04-29T01:48:09.182Z,100757.00
2019-04-29T01:50:42.008Z,100755.00
2019-04-29T01:53:14.833Z,100753.00
2019-04-29T01:55:47.664Z,100760.00
2019-04-29T01:58:20.544Z,100765.00
2019-04-29T02:00:53.462Z,100753.00
2019-04-29T02:03:26.296Z,100761.00
2019-04-29T02:05:59.120Z,100770.00
2019-04-29T02:08:31.959Z,100766.00
2019-04-29T02:11:04.766Z,100765.00
2019-04-29T02:13:37.685Z,100766.00
2019-04-29T02:16:10.500Z,100761.00
2019-04-29T02:18:43.308Z,100768.00
2019-04-29T02:21:16.145Z,100760.00
2019-04-29T02:24:07.481Z,100765.00
2019-04-29T02:26:40.274Z,100752.00
2019-04-29T02:29:13.080Z,100758.00
2019-04-29T02:31:47.403Z,100756.00
2019-04-29T02:34:20.241Z,100759.00
2019-04-29T02:36:53.040Z,100748.00
2019-04-29T02:39:40.567Z,100757.00
2019-04-29T02:42:45.090Z,100758.00
2019-04-29T02:45:22.272Z,100751.00
2019-04-29T02:47:55.069Z,100749.00
2019-04-29T02:50:27.885Z,100749.00
2019-04-29T02:53:00.690Z,100753.00
2019-04-29T02:55:38.135Z,100751.00
2019-04-29T02:58:20.225Z,100760.00
2019-04-29T03:01:12.857Z,100765.00
2019-04-29T03:04:11.168Z,100755.00
2019-04-29T03:06:44.065Z,100761.00
2019-04-29T03:09:16.869Z,100760.00
2019-04-29T03:11:49.681Z,100755.00
2019-04-29T03:14:22.604Z,100764.00
2019-04-29T03:16:55.380Z,100760.00
2019-04-29T03:19:33.506Z,100754.00
2019-04-29T03:22:07.426Z,100756.00
2019-04-29T03:24:40.230Z,100759.00
2019-04-29T03:27:13.089Z,100759.00
2019-04-29T03:29:45.918Z,100747.00
2019-04-29T03:32:18.712Z,100756.00
2019-04-29T03:34:51.556Z,100754.00
2019-04-29T03:37:24.579Z,100768.00
2019-04-29T03:39:57.416Z,100768.00
2019-04-29T03:42:30.225Z,100764.00
2019-04-29T03:45:03.898Z,100765.00
2019-04-29T03:47:37.702Z,100759.00
2019-04-29T03:50:10.969Z,100770.00
2019-04-29T03:52:43.816Z,100766.00
2019-04-29T03:55:16.632Z,100735.00
2019-04-29T03:57:49.529Z,100776.00
2019-04-29T04:00:22.386Z,100772.00
2019-04-29T04:03:11.578Z,100772.00
2019-04-29T04:05:53.656Z,100772.00
2019-04-29T04:08:32.117Z,100777.00
2019-04-29T04:11:04.977Z,100775.00
2019-04-29T04:13:37.808Z,100775.00
2019-04-29T04:16:15.771Z,100773.00
2019-04-29T04:18:48.585Z,100781.00
2019-04-29T04:21:21.421Z,100776.00
2019-04-29T04:23:57.988Z,100778.00
2019-04-29T04:26:30.139Z,100784.00
2019-04-29T04:29:02.970Z,100789.00
2019-04-29T04:31:35.792Z,100797.00
2019-04-29T04:34:08.617Z,100797.00
2019-04-29T04:36:41.413Z,100805.00
2019-04-29T04:39:14.240Z,100808.00
2019-04-29T04:41:47.096Z,100813.00
2019-04-29T04:44:19.916Z,100815.00
2019-04-29T04:46:52.733Z,100812.00
2019-04-29T04:49:25.522Z,100809.00
2019-04-29T04:51:58.498Z,100819.00
2019-04-29T04:54:31.673Z,100829.00
2019-04-29T04:57:04.583Z,100820.00
2019-04-29T04:59:37.498Z,100827.00
2019-04-29T05:02:10.373Z,100821.00
2019-04-29T05:04:43.188Z,100827.00
2019-04-29T05:07:16.029Z,100831.00
2019-04-29T05:09:49.937Z,100830.00
2019-04-29T05:12:23.043Z,100844.00
2019-04-29T05:14:55.870Z,100846.00
2019-04-29T05:17:28.666Z,100850.00
2019-04-29T05:20:01.489Z,100859.00
2019-04-29T05:22:34.401Z,100854.00
2019-04-29T05:25:07.226Z,100865.00
2019-04-29T05:27:40.047Z,100852.00
2019-04-29T05:30:12.909Z,100861.00
2019-04-29T05:32:45.709Z,100854.00
2019-04-29T05:35:24.444Z,100874.00
2019-04-29T05:38:00.579Z,100864.00
2019-04-29T05:40:41.823Z,100869.00
2019-04-29T05:43:17.484Z,100867.00
2019-04-29T05:46:01.310Z,100860.00
2019-04-29T05:48:34.150Z,100880.00
2019-04-29T05:51:27.318Z,100874.00
2019-04-29T05:54:01.240Z,100892.00
2019-04-29T05:56:34.064Z,100893.00
2019-04-29T05:59:08.487Z,100897.00
2019-04-29T06:01:42.696Z,100895.00
2019-04-29T06:04:18.227Z,100900.00
2019-04-29T06:06:53.032Z,100892.00
2019-04-29T06:09:25.863Z,100890.00
2019-04-29T06:11:58.674Z,100896.00
2019-04-29T06:14:31.608Z,100888.00
2019-04-29T06:17:07.718Z,100902.00
2019-04-29T06:19:40.728Z,100912.00
2019-04-29T06:22:13.840Z,100911.00
2019-04-29T06:24:46.749Z,100909.00
2019-04-29T06:27:19.593Z,100921.00
2019-04-29T06:29:52.427Z,100920.00
2019-04-29T06:32:26.431Z,100909.00
2019-04-29T06:34:59.399Z,100913.00
2019-04-29T06:37:32.265Z,100919.00
2019-04-29T06:40:05.413Z,100924.00
2019-04-29T06:42:38.494Z,100918.00
2019-04-29T06:45:12.689Z,100913.00
2019-04-29T06:47:45.527Z,100912.00
2019-04-29T06:50:18.501Z,100912.00
2019-04-29T06:52:51.459Z,100913.00
2019-04-29T06:55:24.287Z,100920.00
2019-04-29T06:57:57.088Z,100909.00
2019-04-29T07:00:30.010Z,100905.00
2019-04-29T07:03:02.844Z,100905.00
2019-04-29T07:05:35.665Z,100917.00
2019-04-29T07:08:08.510Z,100907.00
2019-04-29T07:10:41.324Z,100911.00
2019-04-29T07:13:17.957Z,100905.00
2019-04-29T07:15:49.050Z,100908.00
2019-04-29T07:18:21.960Z,100917.00
2019-04-29T07:20:54.783Z,100919.00
2019-04-29T07:23:27.632Z,100922.00
2019-04-29T07:26:00.589Z,100920.00
2019-04-29T07:28:33.458Z,100924.00
2019-04-29T07:31:06.243Z,100915.00
2019-04-29T07:33:39.040Z,100914.00
2019-04-29T07:36:11.876Z,100908.00
2019-04-29T07:38:46.518Z,100912.00
2019-04-29T07:41:20.847Z,100921.00
2019-04-29T07:43:54.710Z,100905.00
2019-04-29T07:46:55.716Z,100911.00
2019-04-29T07:49:17.248Z,100911.00
2019-04-29T07:51:48.967Z,100908.00
2019-04-29T07:54:21.776Z,100904.00
2019-04-29T07:56:54.623Z,100912.00
2019-04-29T07:59:27.467Z,100900.00
2019-04-29T08:02:01.457Z,100913.00
2019-04-29T08:04:34.337Z,100906.00
2019-04-29T08:07:07.300Z,100906.00
2019-04-29T08:09:44.146Z,100909.00
2019-04-29T08:12:16.094Z,100905.00
2019-04-29T08:14:53.391Z,100906.00
2019-04-29T08:17:24.482Z,100906.00
2019-04-29T08:20:00.611Z,100902.00
2019-04-29T08:22:32.007Z,100892.00
2019-04-29T08:25:05.183Z,100904.00
2019-04-29T08:27:40.764Z,100902.00
2019-04-29T08:30:13.364Z,100905.00
2019-04-29T08:32:46.193Z,100903.00
2019-04-29T08:35:19.246Z,100911.00
2019-04-29T08:37:52.105Z,100907.00
2019-04-29T08:40:24.922Z,100903.00
2019-04-29T08:43:09.324Z,100905.00
2019-04-29T08:45:45.143Z,100911.00
2019-04-29T08:48:17.958Z,100908.00
2019-04-29T08:50:50.796Z,100886.00
2019-04-29T08:53:23.635Z,100897.00
2019-04-29T08:55:56.468Z,100893.00
2019-04-29T08:58:29.308Z,100905.00
2019-04-29T09:01:02.203Z,100899.00
2019-04-29T09:03:40.559Z,100892.00
2019-04-29T09:06:09.769Z,100891.00
2019-04-29T09:08:54.006Z,100896.00
2019-04-29T09:11:17.418Z,100897.00
2019-04-29T09:13:50.235Z,100872.00
2019-04-29T09:16:23.103Z,100886.00
2019-04-29T09:18:55.948Z,100884.00
2019-04-29T09:21:28.863Z,100883.00
2019-04-29T09:24:01.703Z,100876.00
2019-04-29T09:26:51.340Z,100878.00
2019-04-29T09:29:30.694Z,100877.00
2019-04-29T09:32:04.803Z,100885.00
2019-04-29T09:34:37.556Z,100881.00
2019-04-29T09:37:10.572Z,100874.00
2019-04-29T09:39:45.308Z,100858.00
2019-04-29T09:42:45.642Z,100861.00
2019-04-29T09:45:30.663Z,100872.00
2019-04-29T09:48:03.656Z,100869.00
2019-04-29T09:50:39.248Z,100866.00
2019-04-29T09:53:12.426Z,100866.00
2019-04-29T09:55:45.238Z,100868.00
2019-04-29T09:58:18.060Z,100859.00
2019-04-29T10:01:22.433Z,100858.00
2019-04-29T10:04:18.129Z,100864.00
2019-04-29T10:06:53.579Z,100859.00
2019-04-29T10:09:26.488Z,100837.00
2019-04-29T10:11:59.509Z,100858.00
2019-04-29T10:14:32.338Z,100857.00
2019-04-29T10:17:16.869Z,100860.00
2019-04-29T10:19:58.032Z,100849.00
2019-04-29T10:22:30.906Z,100848.00
2019-04-29T10:25:05.444Z,100838.00
2019-04-29T10:27:39.572Z,100835.00
2019-04-29T10:30:17.792Z,100833.00
2019-04-29T10:32:50.618Z,100826.00
2019-04-29T10:35:23.403Z,100835.00
2019-04-29T10:37:56.391Z,100825.00
2019-04-29T10:40:48.835Z,100822.00
2019-04-29T10:43:53.722Z,100817.00
2019-04-29T10:46:43.459Z,100822.00
2019-04-29T10:49:23.244Z,100833.00
2019-04-29T10:51:58.032Z,100823.00
2019-04-29T10:54:39.164Z,100828.00
2019-04-29T10:57:14.705Z,100828.00
2019-04-29T10:59:51.289Z,100816.00
2019-04-29T11:02:38.258Z,100806.00
2019-04-29T11:05:30.201Z,100805.00
2019-04-29T11:08:24.040Z,100788.00
2019-04-29T11:11:02.485Z,100797.00
2019-04-29T11:13:34.966Z,100791.00
2019-04-29T11:16:09.607Z,100797.00
2019-04-29T11:18:42.554Z,100791.00
2019-04-29T11:21:15.396Z,100787.00
2019-04-29T11:24:15.497Z,100778.00
2019-04-29T11:26:52.731Z,100769.00
2019-04-29T11:29:27.472Z,100777.00
2019-04-29T11:32:02.215Z,100768.00
2019-04-29T11:34:48.409Z,100759.00
2019-04-29T11:37:23.884Z,100758.00
2019-04-29T11:39:57.223Z,100751.00
2019-04-29T11:42:35.907Z,100746.00
2019-04-29T11:45:13.285Z,100742.00
2019-04-29T11:47:44.789Z,100729.00
2019-04-29T11:50:30.457Z,100739.00
2019-04-29T11:53:03.347Z,100738.00
2019-04-29T11:55:36.198Z,100742.00
2019-04-29T11:58:16.659Z,100738.00
2019-04-29T12:01:08.335Z,100742.00
2019-04-29T12:03:41.545Z,100747.00
2019-04-29T12:06:16.235Z,100749.00
2019-04-29T12:08:53.208Z,100752.00
2019-04-29T12:11:28.696Z,100734.00
2019-04-29T12:14:18.626Z,100738.00
2019-04-29T12:17:04.292Z,100735.00
2019-04-29T12:19:38.612Z,100737.00
2019-04-29T12:22:25.934Z,100724.00
2019-04-29T12:24:46.570Z,100719.00
2019-04-29T12:27:21.622Z,100727.00
2019-04-29T12:29:59.152Z,100714.00
2019-04-29T12:32:36.644Z,100715.00
2019-04-29T12:35:24.826Z,100709.00
2019-04-29T12:38:15.656Z,100720.00
2019-04-29T12:41:20.228Z,100717.00
2019-04-29T12:43:54.085Z,100723.00
2019-04-29T12:47:00.389Z,100698.00
2019-04-29T12:49:33.310Z,100706.00
2019-04-29T12:52:06.106Z,100702.00
2019-04-29T12:54:42.096Z,100699.00
2019-04-29T12:57:18.909Z,100685.00
2019-04-29T12:59:50.215Z,100687.00
2019-04-29T13:02:41.458Z,100688.00
2019-04-29T13:05:58.501Z,100681.00
2019-04-29T13:08:31.917Z,100681.00
2019-04-29T13:11:05.846Z,100662.00
2019-04-29T13:13:38.668Z,100667.00
2019-04-29T13:16:46.046Z,100661.00
2019-04-29T13:19:32.229Z,100655.00
2019-04-29T13:22:05.045Z,100655.00
2019-04-29T13:24:38.582Z,100651.00
2019-04-29T13:27:16.199Z,100643.00
2019-04-29T13:29:47.944Z,100647.00
2019-04-29T13:32:21.086Z,100650.00
2019-04-29T13:34:55.789Z,100646.00
2019-04-29T13:37:28.744Z,100653.00
2019-04-29T13:40:01.584Z,100654.00
2019-04-29T13:42:34.735Z,100665.00
2019-04-29T13:45:13.931Z,100650.00
2019-04-29T13:48:01.748Z,100639.00
2019-04-29T13:50:40.379Z,100632.00
2019-04-29T13:53:16.579Z,100637.00
2019-04-29T13:55:50.202Z,100630.00
2019-04-29T13:58:27.009Z,100620.00
2019-04-29T14:01:23.647Z,100641.00
2019-04-29T14:04:01.084Z,100633.00
2019-04-29T14:06:35.863Z,100626.00
2019-04-29T14:09:08.793Z,100617.00
2019-04-29T14:11:41.805Z,100626.00
2019-04-29T14:14:17.938Z,100615.00
2019-04-29T14:16:49.760Z,100620.00
2019-04-29T14:19:40.255Z,100619.00
2019-04-29T14:21:57.378Z,100629.00
2019-04-29T14:24:30.327Z,100614.00
2019-04-29T14:27:04.097Z,100616.00
2019-04-29T14:29:36.969Z,100614.00
2019-04-29T14:32:09.864Z,100609.00
2019-04-29T14:35:02.397Z,100613.00
2019-04-29T14:37:36.335Z,100611.00
2019-04-29T14:40:09.548Z,100601.00
2019-04-29T14:42:57.797Z,100604.00
2019-04-29T14:45:53.849Z,100604.00
2019-04-29T14:48:42.268Z,100614.00
2019-04-29T14:51:07.670Z,100607.00
2019-04-29T14:53:40.493Z,100596.00
2019-04-29T14:56:15.777Z,100600.00
2019-04-29T14:58:48.232Z,100604.00
2019-04-29T15:01:56.065Z,100608.00
2019-04-29T15:04:35.134Z,100613.00
2019-04-29T15:07:08.104Z,100614.00
2019-04-29T15:09:57.571Z,100612.00
2019-04-29T15:13:11.365Z,100597.00
2019-04-29T15:16:04.731Z,100602.00
2019-04-29T15:19:02.867Z,100611.00
2019-04-29T15:21:45.231Z,100626.00
2019-04-29T15:24:17.415Z,100619.00
2019-04-29T15:26:49.541Z,100631.00
2019-04-29T15:29:22.373Z,100623.00
2019-04-29T15:31:55.241Z,100616.00
2019-04-29T15:34:28.120Z,100613.00
2019-04-29T15:37:01.027Z,100610.00
2019-04-29T15:39:33.870Z,100614.00
2019-04-29T15:42:08.961Z,100608.00
2019-04-29T15:44:41.514Z,100611.00
2019-04-29T15:47:14.482Z,100608.00
2019-04-29T15:49:47.385Z,100605.00
2019-04-29T15:52:21.109Z,100606.00
2019-04-29T15:54:54.965Z,100600.00
2019-04-29T15:57:28.110Z,100599.00
2019-04-29T16:00:07.219Z,100594.00
2019-04-29T16:02:40.939Z,100592.00
2019-04-29T16:05:25.581Z,100590.00
2019-04-29T16:08:16.715Z,100600.00
2019-04-29T16:11:08.063Z,100604.00
2019-04-29T16:13:40.955Z,100606.00
2019-04-29T16:16:13.957Z,100616.00
2019-04-29T16:18:46.852Z,100599.00
2019-04-29T16:21:19.969Z,100588.00
2019-04-29T16:23:57.474Z,100597.00
2019-04-29T16:26:30.260Z,100591.00
2019-04-29T16:29:02.401Z,100598.00
2019-04-29T16:31:36.188Z,100610.00
2019-04-29T16:34:10.053Z,100614.00
2019-04-29T16:36:43.654Z,100614.00
2019-04-29T16:39:17.722Z,100621.00
2019-04-29T16:42:25.530Z,100626.00
2019-04-29T16:44:58.541Z,100622.00
2019-04-29T16:47:31.460Z,100611.00
2019-04-29T16:50:06.101Z,100631.00
2019-04-29T16:52:44.434Z,100628.00
2019-04-29T16:55:14.076Z,100634.00
2019-04-29T16:57:46.978Z,100631.00
2019-04-29T17:00:24.473Z,100633.00
2019-04-29T17:02:57.359Z,100625.00
2019-04-29T17:05:30.251Z,100635.00
2019-04-29T17:08:09.522Z,100633.00
2019-04-29T17:10:50.998Z,100630.00
2019-04-29T17:13:24.137Z,100626.00
2019-04-29T17:15:57.053Z,100624.00
2019-04-29T17:18:30.349Z,100612.00
2019-04-29T17:21:21.585Z,100603.00
2019-04-29T17:23:54.582Z,100602.00
2019-04-29T17:26:35.757Z,100600.00
2019-04-29T17:29:38.913Z,100609.00
2019-04-29T17:32:20.063Z,100610.00
2019-04-29T17:34:59.663Z,100615.00
2019-04-29T17:37:28.384Z,100607.00
2019-04-29T17:40:01.326Z,100610.00
2019-04-29T17:42:36.140Z,100612.00
2019-04-29T17:45:12.397Z,100606.00
2019-04-29T17:48:00.606Z,100606.00
2019-04-29T17:50:46.801Z,100597.00
2019-04-29T17:53:26.728Z,100608.00
2019-04-29T17:56:18.044Z,100618.00
2019-04-29T17:58:58.207Z,100623.00
2019-04-29T18:01:48.430Z,100624.00
2019-04-29T18:04:38.517Z,100623.00
2019-04-29T18:07:25.183Z,100623.00
2019-04-29T18:10:05.163Z,100631.00
2019-04-29T18:12:41.102Z,100626.00
2019-04-29T18:15:20.053Z,100616.00
2019-04-29T18:17:50.126Z,100613.00
2019-04-29T18:20:44.832Z,100613.00
2019-04-29T18:23:59.135Z,100604.00
2019-04-29T18:26:38.272Z,100605.00
2019-04-29T18:29:11.166Z,100606.00
2019-04-29T18:31:44.972Z,100616.00
2019-04-29T18:34:18.953Z,100605.00
2019-04-29T18:36:54.590Z,100619.00
2019-04-29T18:39:29.970Z,100630.00
2019-04-29T18:42:03.351Z,100636.00
2019-04-29T18:44:40.548Z,100632.00
2019-04-29T18:47:20.677Z,100603.00
2019-04-29T18:49:47.324Z,100607.00
2019-04-29T18:52:25.909Z,100613.00
2019-04-29T18:54:55.423Z,100614.00
2019-04-29T18:57:30.832Z,100617.00
2019-04-29T19:00:11.833Z,100613.00
2019-04-29T19:02:45.412Z,100614.00
2019-04-29T19:05:26.391Z,100610.00
2019-04-29T19:08:10.951Z,100616.00
2019-04-29T19:10:34.554Z,100618.00
2019-04-29T19:13:12.741Z,100620.00
2019-04-29T19:15:46.996Z,100629.00
2019-04-29T19:18:20.879Z,100629.00
2019-04-29T19:20:52.825Z,100633.00
2019-04-29T19:23:29.423Z,100631.00
2019-04-29T19:26:00.920Z,100623.00
2019-04-29T19:28:34.648Z,100622.00
2019-04-29T19:31:09.809Z,100618.00
2019-04-29T19:33:43.014Z,100626.00
2019-04-29T19:36:20.302Z,100639.00
2019-04-29T19:38:50.902Z,100640.00
2019-04-29T19:41:25.623Z,100614.00
2019-04-29T19:43:59.604Z,100650.00
2019-04-29T19:46:38.486Z,100653.00
2019-04-29T19:49:09.855Z,100657.00
2019-04-29T19:51:43.568Z,100653.00
2019-04-29T19:54:23.904Z,100648.00
2019-04-29T19:56:55.605Z,100643.00
2019-04-29T19:59:26.727Z,100641.00
2019-04-29T20:02:05.205Z,100647.00
2019-04-29T20:04:43.090Z,100634.00
2019-04-29T20:07:17.600Z,100637.00
2019-04-29T20:10:00.011Z,100635.00
2019-04-29T20:12:26.163Z,100655.00
2019-04-29T20:15:02.114Z,100646.00
2019-04-29T20:17:52.526Z,100655.00
2019-04-29T20:20:46.239Z,100663.00
2019-04-29T20:23:24.759Z,100656.00
2019-04-29T20:25:57.753Z,100658.00
2019-04-29T20:28:28.736Z,100652.00
2019-04-29T20:31:15.301Z,100654.00
2019-04-29T20:33:36.481Z,100657.00
2019-04-29T20:36:09.572Z,100656.00
2019-04-29T20:38:42.589Z,100653.00
2019-04-29T20:41:20.296Z,100655.00
2019-04-29T20:43:50.383Z,100655.00
2019-04-29T20:46:23.425Z,100656.00
2019-04-29T20:48:59.676Z,100665.00
2019-04-29T20:51:47.866Z,100655.00
2019-04-29T20:54:15.953Z,100661.00
2019-04-29T20:56:47.346Z,100648.00
2019-04-29T20:59:20.279Z,100656.00
2019-04-29T21:02:10.767Z,100652.00
2019-04-29T21:04:39.095Z,100663.00
2019-04-29T21:07:07.176Z,100656.00
2019-04-29T21:09:40.016Z,100659.00
2019-04-29T21:12:20.812Z,100660.00
2019-04-29T21:14:59.439Z,100663.00
2019-04-29T21:17:32.097Z,100650.00
2019-04-29T21:20:04.918Z,100653.00
2019-04-29T21:22:37.719Z,100652.00
2019-04-29T21:25:10.592Z,100655.00
2019-04-29T21:27:45.452Z,100655.00
2019-04-29T21:30:18.735Z,100659.00
2019-04-29T21:32:51.476Z,100669.00
2019-04-29T21:35:31.772Z,100664.00
2019-04-29T21:38:23.481Z,100655.00
2019-04-29T21:41:01.738Z,100671.00
2019-04-29T21:43:37.726Z,100666.00
2019-04-29T21:46:10.556Z,100662.00
2019-04-29T21:48:43.337Z,100669.00
2019-04-29T21:51:17.480Z,100669.00
2019-04-29T21:53:50.373Z,100679.00
2019-04-29T21:56:23.152Z,100677.00
2019-04-29T21:58:55.910Z,100682.00
2019-04-29T22:01:29.458Z,100672.00
2019-04-29T22:04:04.465Z,100678.00
2019-04-29T22:06:37.274Z,100685.00
2019-04-29T22:09:10.008Z,100681.00
2019-04-29T22:11:44.684Z,100679.00
2019-04-29T22:14:18.750Z,100678.00
2019-04-29T22:16:54.281Z,100680.00
2019-04-29T22:19:28.066Z,100686.00
2019-04-29T22:22:01.608Z,100686.00
2019-04-29T22:24:35.670Z,100682.00
2019-04-29T22:27:09.353Z,100695.00
2019-04-29T22:29:42.084Z,100683.00
2019-04-29T22:32:19.188Z,100684.00
2019-04-29T22:34:56.123Z,100679.00
2019-04-29T22:37:25.558Z,100683.00
2019-04-29T22:39:58.775Z,100683.00
2019-04-29T22:42:45.964Z,100679.00
2019-04-29T22:45:19.841Z,100684.00
2019-04-29T22:47:54.393Z,100684.00
2019-04-29T22:50:27.362Z,100686.00
2019-04-29T22:53:01.251Z,100681.00
2019-04-29T22:55:37.694Z,100689.00
2019-04-29T22:58:10.192Z,100675.00
2019-04-29T23:00:43.102Z,100680.00
2019-04-29T23:03:15.984Z,100672.00
2019-04-29T23:05:48.778Z,100665.00
2019-04-29T23:08:21.621Z,100671.00
2019-04-29T23:10:55.620Z,100665.00
2019-04-29T23:13:31.140Z,100669.00
2019-04-29T23:16:03.989Z,100667.00
2019-04-29T23:18:42.049Z,100672.00
2019-04-29T23:21:36.017Z,100672.00
2019-04-29T23:24:17.683Z,100675.00
2019-04-29T23:26:50.520Z,100660.00
2019-04-29T23:29:23.313Z,100663.00
2019-04-29T23:31:59.697Z,100668.00
2019-04-29T23:34:32.969Z,100668.00
2019-04-29T23:37:05.813Z,100679.00
2019-04-29T23:39:38.608Z,100677.00
2019-04-29T23:42:12.379Z,100676.00
2019-04-29T23:44:46.127Z,100671.00
2019-04-29T23:47:18.960Z,100667.00
2019-04-29T23:49:51.784Z,100671.00
2019-04-29T23:52:24.645Z,100675.00
2019-04-29T23:54:57.503Z,100677.00
2019-04-29T23:57:48.366Z,100667.00
